createdAt,value
2022-11-29T00:01:26.465Z,37.70
2022-11-29T00:03:53.504Z,44.35
2022-11-29T00:06:22.739Z,44.05
2022-11-29T00:08:49.835Z,39.33
2022-11-29T00:11:19.297Z,38.35
2022-11-29T00:13:45.803Z,43.05
2022-11-29T00:16:12.286Z,42.95
2022-11-29T00:18:38.699Z,43.80
2022-11-29T00:21:08.642Z,44.80
2022-11-29T00:23:35.889Z,43.80
2022-11-29T00:26:07.035Z,40.72
2022-11-29T00:28:34.755Z,45.13
2022-11-29T00:31:01.794Z,37.35
2022-11-29T00:33:28.342Z,38.30
2022-11-29T00:35:54.841Z,40.40
2022-11-29T00:38:21.235Z,40.13
2022-11-29T00:40:51.900Z,42.30
2022-11-29T00:43:18.379Z,43.20
2022-11-29T00:45:44.778Z,42.20
2022-11-29T00:48:11.169Z,49.80
2022-11-29T00:50:37.579Z,42.80
2022-11-29T00:53:04.225Z,42.80
2022-11-29T00:55:30.776Z,45.05
2022-11-29T00:57:57.148Z,42.50
2022-11-29T01:00:23.526Z,44.28
2022-11-29T01:02:49.902Z,39.47
2022-11-29T01:05:16.327Z,46.10
2022-11-29T01:07:42.893Z,46.35
2022-11-29T01:10:09.947Z,47.40
2022-11-29T01:12:37.267Z,46.85
2022-11-29T01:15:05.871Z,43.15
2022-11-29T01:17:35.088Z,39.78
2022-11-29T01:20:02.024Z,40.28
2022-11-29T01:22:28.494Z,46.50
2022-11-29T01:24:54.855Z,39.60
2022-11-29T01:27:21.423Z,43.45
2022-11-29T01:29:47.770Z,36.38
2022-11-29T01:32:14.617Z,45.17
2022-11-29T01:34:41.333Z,48.63
2022-11-29T01:37:07.869Z,47.70
2022-11-29T01:39:34.419Z,46.58
2022-11-29T01:42:00.958Z,49.00
2022-11-29T01:44:27.248Z,44.50
2022-11-29T01:46:54.283Z,45.80
2022-11-29T01:49:29.024Z,48.75
2022-11-29T01:52:00.985Z,46.30
2022-11-29T01:54:29.647Z,46.72
2022-11-29T01:56:56.257Z,47.85
2022-11-29T01:59:25.747Z,36.08
2022-11-29T02:01:52.976Z,44.67
2022-11-29T02:04:19.608Z,41.53
2022-11-29T02:06:46.731Z,38.95
2022-11-29T02:09:21.431Z,40.75
2022-11-29T02:12:20.951Z,41.63
2022-11-29T02:15:12.157Z,40.35
2022-11-29T02:17:53.547Z,34.90
2022-11-29T02:20:54.511Z,37.60
2022-11-29T02:23:51.214Z,35.90
2022-11-29T02:26:38.992Z,33.65
2022-11-29T02:29:30.275Z,36.25
2022-11-29T02:32:14.837Z,36.42
2022-11-29T02:35:31.470Z,35.45
2022-11-29T02:38:19.693Z,34.90
2022-11-29T02:41:00.369Z,32.17
2022-11-29T02:43:31.996Z,34.35
2022-11-29T02:46:16.736Z,36.17
2022-11-29T02:49:19.851Z,34.45
2022-11-29T02:51:55.574Z,32.22
2022-11-29T02:54:33.877Z,30.83
2022-11-29T02:57:11.607Z,30.95
2022-11-29T02:59:58.820Z,33.97
2022-11-29T03:02:46.443Z,30.40
2022-11-29T03:05:33.656Z,33.22
2022-11-29T03:08:11.217Z,29.58
2022-11-29T03:10:56.821Z,30.30
2022-11-29T03:13:38.442Z,29.50
2022-11-29T03:16:15.067Z,30.13
2022-11-29T03:19:04.886Z,30.05
2022-11-29T03:21:45.997Z,27.83
2022-11-29T03:24:23.232Z,27.40
2022-11-29T03:26:55.890Z,29.60
2022-11-29T03:29:42.931Z,26.10
2022-11-29T03:32:43.122Z,30.92
2022-11-29T03:35:37.384Z,29.37
2022-11-29T03:38:16.021Z,34.50
2022-11-29T03:40:52.347Z,31.63
2022-11-29T03:43:52.650Z,30.63
2022-11-29T03:46:29.103Z,32.00
2022-11-29T03:49:11.049Z,30.65
2022-11-29T03:52:11.621Z,26.25
2022-11-29T03:54:49.715Z,27.58
2022-11-29T03:57:26.357Z,30.25
2022-11-29T04:00:02.081Z,28.33
2022-11-29T04:02:54.327Z,25.65
2022-11-29T04:05:41.595Z,25.95
2022-11-29T04:08:26.962Z,26.65
2022-11-29T04:11:30.911Z,27.65
2022-11-29T04:14:27.787Z,31.27
2022-11-29T04:17:20.559Z,27.75
2022-11-29T04:20:26.112Z,27.60
2022-11-29T04:22:58.500Z,25.92
2022-11-29T04:25:33.677Z,26.67
2022-11-29T04:28:32.739Z,28.35
2022-11-29T04:31:21.089Z,29.73
2022-11-29T04:33:58.361Z,24.83
2022-11-29T04:36:57.141Z,22.33
2022-11-29T04:39:42.887Z,31.48
2022-11-29T04:42:25.601Z,27.63
2022-11-29T04:45:35.303Z,28.65
2022-11-29T04:48:21.718Z,32.15
2022-11-29T04:51:09.625Z,37.78
2022-11-29T04:53:55.495Z,34.33
2022-11-29T04:56:42.733Z,35.70
2022-11-29T04:59:25.383Z,26.98
2022-11-29T05:02:07.254Z,29.25
2022-11-29T05:05:01.090Z,29.48
2022-11-29T05:08:09.623Z,25.17
2022-11-29T05:11:10.551Z,27.92
2022-11-29T05:13:59.715Z,26.65
2022-11-29T05:16:45.113Z,27.58
2022-11-29T05:19:28.484Z,26.73
2022-11-29T05:22:23.572Z,27.80
2022-11-29T05:24:50.037Z,24.90
2022-11-29T05:27:28.309Z,26.55
2022-11-29T05:30:15.116Z,22.30
2022-11-29T05:32:55.661Z,24.00
2022-11-29T05:35:46.749Z,29.83
2022-11-29T05:41:28.637Z,27.52
2022-11-29T05:44:16.305Z,24.73
2022-11-29T05:47:04.739Z,24.17
2022-11-29T05:49:53.838Z,24.27
2022-11-29T05:52:49.618Z,22.02
2022-11-29T05:55:53.091Z,26.50
2022-11-29T05:58:30.076Z,24.70
2022-11-29T06:01:24.242Z,21.77
2022-11-29T06:03:59.672Z,23.58
2022-11-29T06:06:42.203Z,26.10
2022-11-29T06:09:23.800Z,28.08
2022-11-29T06:11:55.124Z,27.50
2022-11-29T06:14:40.419Z,27.13
2022-11-29T06:17:25.041Z,23.38
2022-11-29T06:20:02.876Z,23.55
2022-11-29T06:22:55.272Z,22.27
2022-11-29T06:25:30.734Z,20.52
2022-11-29T06:28:29.325Z,21.95
2022-11-29T06:31:16.545Z,21.98
2022-11-29T06:34:22.418Z,21.73
2022-11-29T06:36:57.127Z,20.42
2022-11-29T06:39:23.932Z,25.05
2022-11-29T06:41:50.318Z,22.98
2022-11-29T06:44:17.013Z,18.02
2022-11-29T06:46:47.121Z,19.10
2022-11-29T06:49:27.282Z,23.25
2022-11-29T06:52:08.253Z,18.55
2022-11-29T06:57:55.088Z,22.02
2022-11-29T07:00:27.560Z,22.83
2022-11-29T07:03:22.745Z,20.42
2022-11-29T07:05:49.652Z,17.05
2022-11-29T07:08:19.075Z,18.40
2022-11-29T07:10:47.503Z,19.15
2022-11-29T07:13:14.249Z,20.98
2022-11-29T07:15:55.584Z,22.35
2022-11-29T07:18:37.396Z,21.65
2022-11-29T07:21:24.376Z,23.65
2022-11-29T07:24:08.677Z,19.88
2022-11-29T07:26:46.331Z,20.25
2022-11-29T07:29:34.811Z,20.45
2022-11-29T07:32:21.400Z,22.90
2022-11-29T07:35:01.472Z,23.77
2022-11-29T07:37:42.853Z,28.07
2022-11-29T07:40:37.392Z,21.95
2022-11-29T07:43:16.549Z,16.23
2022-11-29T07:45:43.095Z,20.70
2022-11-29T07:48:11.800Z,17.85
2022-11-29T07:50:40.100Z,22.40
2022-11-29T07:53:06.641Z,16.75
2022-11-29T07:55:33.832Z,17.42
2022-11-29T07:58:00.240Z,17.92
2022-11-29T08:00:26.651Z,18.90
2022-11-29T08:02:53.208Z,20.13
2022-11-29T08:05:19.593Z,13.70
2022-11-29T08:07:46.205Z,15.65
2022-11-29T08:10:15.498Z,16.10
2022-11-29T08:12:44.264Z,16.88
2022-11-29T08:15:10.999Z,16.35
2022-11-29T08:17:38.364Z,16.02
2022-11-29T08:20:06.432Z,11.25
2022-11-29T08:22:32.988Z,15.38
2022-11-29T08:24:59.496Z,15.15
2022-11-29T08:27:26.273Z,14.93
2022-11-29T08:29:52.659Z,17.88
2022-11-29T08:32:19.162Z,14.52
2022-11-29T08:34:45.864Z,15.60
2022-11-29T08:37:12.555Z,17.70
2022-11-29T08:39:39.070Z,15.10
2022-11-29T08:42:05.740Z,16.40
2022-11-29T08:44:32.082Z,20.00
2022-11-29T08:46:58.587Z,21.02
2022-11-29T08:49:32.370Z,19.80
2022-11-29T08:51:58.819Z,20.38
2022-11-29T08:54:25.361Z,23.25
2022-11-29T08:59:38.129Z,19.92
2022-11-29T09:02:04.586Z,23.42
2022-11-29T09:04:30.922Z,27.35
2022-11-29T09:06:57.328Z,18.42
2022-11-29T09:09:23.830Z,17.38
2022-11-29T09:11:50.344Z,17.23
2022-11-29T09:14:17.566Z,20.52
2022-11-29T09:16:44.169Z,18.55
2022-11-29T09:19:13.353Z,14.38
2022-11-29T09:21:40.060Z,16.45
2022-11-29T09:24:06.820Z,14.20
2022-11-29T09:26:36.351Z,17.00
2022-11-29T09:29:05.245Z,13.32
2022-11-29T09:31:32.940Z,19.23
2022-11-29T09:33:59.586Z,22.98
2022-11-29T09:36:29.079Z,18.45
2022-11-29T09:38:56.848Z,20.60
2022-11-29T09:41:48.773Z,16.35
2022-11-29T09:44:25.827Z,17.67
2022-11-29T09:47:11.235Z,17.02
2022-11-29T09:50:02.158Z,18.00
2022-11-29T09:52:31.505Z,18.10
2022-11-29T09:55:21.707Z,18.30
2022-11-29T09:57:49.826Z,19.15
2022-11-29T10:00:18.971Z,16.50
2022-11-29T10:02:54.089Z,17.17
2022-11-29T10:05:38.296Z,20.90
2022-11-29T10:08:14.236Z,19.70
2022-11-29T10:10:46.196Z,16.88
2022-11-29T10:13:26.141Z,18.50
2022-11-29T10:16:11.366Z,18.85
2022-11-29T10:18:48.017Z,17.13
2022-11-29T10:21:21.615Z,17.60
2022-11-29T10:24:14.099Z,18.75
2022-11-29T10:26:41.187Z,18.33
2022-11-29T10:29:13.055Z,20.95
2022-11-29T10:31:43.419Z,17.63
2022-11-29T10:34:14.777Z,25.10
2022-11-29T10:36:47.830Z,21.17
2022-11-29T10:39:25.021Z,18.88
2022-11-29T10:41:55.919Z,18.30
2022-11-29T10:46:50.563Z,18.15
2022-11-29T10:49:23.586Z,17.63
2022-11-29T10:51:50.132Z,20.20
2022-11-29T10:54:31.677Z,21.17
2022-11-29T10:57:00.633Z,19.73
2022-11-29T10:59:29.783Z,17.27
2022-11-29T11:01:57.521Z,15.43
2022-11-29T11:04:47.675Z,14.25
2022-11-29T11:07:33.012Z,14.43
2022-11-29T11:09:59.977Z,14.70
2022-11-29T11:12:32.685Z,17.20
2022-11-29T11:15:27.676Z,15.43
2022-11-29T11:18:02.743Z,13.75
2022-11-29T11:20:32.112Z,13.25
2022-11-29T11:23:04.571Z,13.35
2022-11-29T11:25:40.155Z,14.30
2022-11-29T11:28:21.282Z,12.65
2022-11-29T11:30:54.724Z,11.35
2022-11-29T11:33:26.238Z,14.27
2022-11-29T11:36:14.684Z,14.85
2022-11-29T11:38:50.962Z,12.50
2022-11-29T11:41:20.951Z,13.00
2022-11-29T11:43:59.436Z,18.23
2022-11-29T11:46:47.857Z,17.50
2022-11-29T11:49:26.080Z,19.02
2022-11-29T11:51:52.680Z,19.42
2022-11-29T11:54:20.017Z,17.58
2022-11-29T11:56:46.447Z,18.20
2022-11-29T11:59:22.546Z,17.52
2022-11-29T12:01:49.159Z,18.77
2022-11-29T12:04:36.027Z,17.05
2022-11-29T12:08:06.082Z,18.92
2022-11-29T12:10:30.602Z,16.08
2022-11-29T12:12:59.628Z,18.60
2022-11-29T12:15:32.873Z,20.00
2022-11-29T12:18:08.491Z,20.77
2022-11-29T12:21:03.602Z,21.02
2022-11-29T12:23:46.443Z,23.02
2022-11-29T12:26:48.908Z,19.55
2022-11-29T12:29:15.319Z,15.90
2022-11-29T12:31:52.942Z,19.55
2022-11-29T12:34:45.578Z,18.77
2022-11-29T12:37:34.355Z,17.67
2022-11-29T12:40:17.802Z,22.65
2022-11-29T12:43:33.708Z,37.42
2022-11-29T12:46:11.746Z,19.27
2022-11-29T12:48:59.941Z,22.73
2022-11-29T12:52:02.415Z,19.73
2022-11-29T12:54:55.383Z,14.98
2022-11-29T12:57:29.217Z,13.90
2022-11-29T12:59:58.384Z,16.52
2022-11-29T13:02:35.601Z,16.88
2022-11-29T13:05:23.332Z,12.55
2022-11-29T13:08:12.201Z,19.42
2022-11-29T13:11:12.626Z,15.98
2022-11-29T13:13:42.528Z,16.75
2022-11-29T13:16:30.906Z,15.30
2022-11-29T13:19:23.009Z,13.13
2022-11-29T13:22:07.203Z,16.08
2022-11-29T13:24:42.874Z,11.32
2022-11-29T13:27:16.096Z,13.93
2022-11-29T13:29:43.080Z,10.82
2022-11-29T13:32:29.753Z,12.93
2022-11-29T13:35:01.187Z,13.15
2022-11-29T13:37:38.889Z,11.95
2022-11-29T13:40:36.742Z,12.73
2022-11-29T13:43:19.923Z,12.60
2022-11-29T13:46:01.757Z,8.32
2022-11-29T13:48:29.090Z,11.90
2022-11-29T13:50:57.532Z,10.00
2022-11-29T13:53:28.000Z,12.27
2022-11-29T13:56:00.771Z,11.68
2022-11-29T13:58:38.511Z,10.13
2022-11-29T14:01:11.137Z,11.40
2022-11-29T14:03:40.535Z,10.55
2022-11-29T14:06:10.672Z,10.68
2022-11-29T14:09:10.799Z,9.75
2022-11-29T14:11:37.429Z,10.10
2022-11-29T14:14:22.537Z,10.55
2022-11-29T14:16:52.221Z,8.88
2022-11-29T14:19:23.781Z,11.45
2022-11-29T14:21:56.054Z,10.57
2022-11-29T14:24:43.562Z,12.57
2022-11-29T14:27:13.422Z,13.77
2022-11-29T14:29:48.917Z,12.57
2022-11-29T14:32:52.475Z,9.68
2022-11-29T14:36:02.825Z,8.70
2022-11-29T14:39:20.803Z,8.50
2022-11-29T14:42:05.990Z,12.77
2022-11-29T14:44:34.365Z,12.93
2022-11-29T14:47:08.912Z,13.25
2022-11-29T14:49:48.959Z,11.30
2022-11-29T14:52:15.265Z,12.97
2022-11-29T14:54:58.005Z,11.98
2022-11-29T14:58:01.828Z,10.32
2022-11-29T15:00:38.359Z,8.10
2022-11-29T15:03:20.935Z,11.13
2022-11-29T15:05:58.048Z,9.98
2022-11-29T15:08:35.443Z,8.60
2022-11-29T15:11:05.483Z,9.23
2022-11-29T15:13:35.062Z,9.48
2022-11-29T15:16:33.044Z,8.57
2022-11-29T15:19:21.291Z,7.80
2022-11-29T15:22:06.287Z,7.28
2022-11-29T15:24:49.903Z,11.60
2022-11-29T15:27:16.843Z,11.55
2022-11-29T15:29:43.357Z,11.23
2022-11-29T15:32:21.800Z,11.40
2022-11-29T15:34:50.863Z,9.05
2022-11-29T15:37:35.659Z,8.60
2022-11-29T15:40:16.188Z,9.18
2022-11-29T15:42:58.199Z,11.80
2022-11-29T15:45:26.285Z,10.82
2022-11-29T15:47:53.217Z,10.73
2022-11-29T15:50:25.204Z,10.05
2022-11-29T15:52:57.028Z,13.93
2022-11-29T15:55:23.976Z,11.85
2022-11-29T15:57:52.992Z,14.63
2022-11-29T16:00:21.972Z,12.18
2022-11-29T16:02:54.280Z,13.43
2022-11-29T16:05:25.391Z,9.98
2022-11-29T16:08:00.493Z,16.92
2022-11-29T16:10:42.422Z,15.65
2022-11-29T16:13:35.379Z,18.55
2022-11-29T16:16:18.865Z,12.48
2022-11-29T16:18:47.253Z,10.93
2022-11-29T16:21:26.093Z,10.55
2022-11-29T16:23:53.228Z,11.20
2022-11-29T16:26:36.951Z,12.55
2022-11-29T16:29:03.519Z,11.68
2022-11-29T16:31:38.415Z,13.77
2022-11-29T16:34:15.052Z,14.00
2022-11-29T16:36:41.680Z,12.30
2022-11-29T16:39:22.791Z,15.50
2022-11-29T16:42:06.209Z,13.10
2022-11-29T16:44:41.331Z,13.57
2022-11-29T16:47:28.624Z,15.45
2022-11-29T16:50:01.094Z,14.32
2022-11-29T16:52:33.181Z,16.40
2022-11-29T16:55:00.024Z,16.23
2022-11-29T16:57:28.036Z,15.50
2022-11-29T16:59:54.579Z,20.20
2022-11-29T17:02:21.011Z,20.92
2022-11-29T17:04:47.937Z,17.65
2022-11-29T17:07:28.220Z,21.08
2022-11-29T17:09:55.261Z,15.13
2022-11-29T17:12:21.695Z,14.40
2022-11-29T17:14:48.400Z,14.70
2022-11-29T17:17:16.873Z,15.70
2022-11-29T17:19:43.449Z,15.10
2022-11-29T17:22:10.262Z,15.13
2022-11-29T17:24:39.504Z,15.68
2022-11-29T17:27:07.514Z,17.35
2022-11-29T17:29:34.026Z,18.38
2022-11-29T17:32:00.422Z,17.08
2022-11-29T17:34:26.848Z,15.65
2022-11-29T17:36:53.184Z,20.65
2022-11-29T17:39:19.709Z,18.25
2022-11-29T17:41:46.775Z,19.88
2022-11-29T17:44:13.240Z,25.17
2022-11-29T17:46:40.394Z,21.02
2022-11-29T17:49:08.797Z,25.02
2022-11-29T17:51:51.710Z,19.48
2022-11-29T17:54:19.092Z,17.60
2022-11-29T17:56:45.723Z,17.83
2022-11-29T17:59:12.206Z,17.45
2022-11-29T18:01:38.633Z,20.08
2022-11-29T18:04:06.331Z,18.27
2022-11-29T18:06:39.190Z,21.23
2022-11-29T18:09:07.881Z,17.52
2022-11-29T18:11:47.122Z,15.30
2022-11-29T18:14:20.070Z,16.08
2022-11-29T18:16:46.636Z,15.52
2022-11-29T18:19:16.331Z,13.77
2022-11-29T18:21:43.293Z,13.88
2022-11-29T18:24:10.752Z,21.75
2022-11-29T18:26:38.173Z,20.58
2022-11-29T18:29:06.045Z,17.98
2022-11-29T18:31:35.929Z,20.50
2022-11-29T18:34:05.132Z,23.90
2022-11-29T18:36:33.820Z,23.95
2022-11-29T18:39:09.430Z,18.58
2022-11-29T18:41:36.610Z,20.48
2022-11-29T18:44:07.563Z,25.40
2022-11-29T18:49:01.138Z,26.05
2022-11-29T18:51:29.397Z,19.42
2022-11-29T18:53:56.330Z,20.60
2022-11-29T18:56:25.525Z,19.45
2022-11-29T18:58:58.695Z,19.95
2022-11-29T19:01:27.526Z,20.10
2022-11-29T19:03:57.114Z,21.70
2022-11-29T19:06:38.573Z,18.65
2022-11-29T19:09:07.450Z,20.73
2022-11-29T19:11:34.478Z,20.15
2022-11-29T19:14:07.106Z,17.90
2022-11-29T19:16:34.756Z,19.80
2022-11-29T19:19:02.020Z,22.52
2022-11-29T19:21:31.054Z,26.17
2022-11-29T19:23:59.986Z,26.95
2022-11-29T19:26:28.930Z,23.23
2022-11-29T19:28:56.058Z,20.88
2022-11-29T19:31:25.624Z,24.27
2022-11-29T19:33:52.825Z,22.55
2022-11-29T19:36:25.252Z,23.48
2022-11-29T19:38:54.166Z,20.58
2022-11-29T19:41:23.405Z,30.15
2022-11-29T19:43:50.873Z,24.52
2022-11-29T19:46:20.014Z,24.30
2022-11-29T19:48:46.976Z,22.25
2022-11-29T19:51:15.107Z,26.52
2022-11-29T19:53:41.509Z,22.63
2022-11-29T19:56:13.213Z,20.65
2022-11-29T19:58:39.607Z,27.38
2022-11-29T20:01:08.193Z,25.88
2022-11-29T20:03:35.049Z,23.63
2022-11-29T20:06:02.244Z,26.10
2022-11-29T20:08:29.466Z,28.17
2022-11-29T20:10:55.934Z,29.48
2022-11-29T20:13:22.981Z,28.33
2022-11-29T20:15:49.498Z,26.80
2022-11-29T20:18:15.871Z,29.25
2022-11-29T20:20:42.492Z,33.83
2022-11-29T20:23:09.006Z,33.83
2022-11-29T20:25:35.476Z,34.92
2022-11-29T20:28:02.225Z,32.08
2022-11-29T20:30:28.575Z,32.80
2022-11-29T20:32:55.042Z,31.30
2022-11-29T20:35:21.774Z,37.15
2022-11-29T20:38:19.896Z,31.98
2022-11-29T20:41:02.639Z,37.40
2022-11-29T20:43:38.591Z,31.42
2022-11-29T20:46:05.400Z,30.73
2022-11-29T20:48:32.076Z,30.35
2022-11-29T20:51:00.861Z,34.95
2022-11-29T20:53:39.275Z,32.63
2022-11-29T20:56:07.757Z,34.70
2022-11-29T20:58:34.527Z,31.80
2022-11-29T21:01:00.961Z,40.25
2022-11-29T21:03:28.652Z,37.95
2022-11-29T21:05:56.388Z,38.72
2022-11-29T21:08:26.040Z,37.35
2022-11-29T21:10:53.284Z,36.97
2022-11-29T21:13:22.526Z,37.10
2022-11-29T21:15:49.903Z,39.53
2022-11-29T21:18:24.823Z,43.53
2022-11-29T21:21:03.098Z,40.28
2022-11-29T21:24:00.880Z,42.10
2022-11-29T21:26:37.168Z,39.28
2022-11-29T21:29:09.388Z,39.90
2022-11-29T21:31:36.413Z,44.25
2022-11-29T21:34:02.814Z,45.45
2022-11-29T21:36:29.665Z,46.63
2022-11-29T21:38:57.902Z,46.28
2022-11-29T21:41:27.323Z,44.92
2022-11-29T21:44:09.727Z,41.35
2022-11-29T21:46:36.320Z,42.83
2022-11-29T21:49:02.974Z,43.42
2022-11-29T21:51:29.308Z,38.67
2022-11-29T21:53:55.669Z,45.38
2022-11-29T21:56:22.133Z,45.67
2022-11-29T21:58:48.580Z,48.55
2022-11-29T22:01:18.058Z,48.88
2022-11-29T22:03:44.892Z,45.80
2022-11-29T22:06:13.330Z,51.50
2022-11-29T22:08:41.472Z,50.50
2022-11-29T22:11:10.675Z,56.13
2022-11-29T22:13:38.991Z,47.90
2022-11-29T22:16:07.901Z,45.35
2022-11-29T22:18:34.442Z,43.95
2022-11-29T22:21:07.294Z,42.28
2022-11-29T22:23:34.258Z,40.25
2022-11-29T22:26:05.420Z,42.60
2022-11-29T22:28:32.137Z,45.13
2022-11-29T22:31:07.922Z,44.15
2022-11-29T22:33:34.558Z,42.45
2022-11-29T22:36:05.995Z,48.92
2022-11-29T22:38:32.575Z,45.92
2022-11-29T22:41:00.866Z,48.35
2022-11-29T22:43:28.140Z,45.55
2022-11-29T22:45:54.790Z,46.30
2022-11-29T22:48:21.280Z,43.30
2022-11-29T22:50:47.816Z,43.13
2022-11-29T22:53:14.473Z,40.75
2022-11-29T22:55:40.889Z,41.88
2022-11-29T22:58:07.237Z,38.88
2022-11-29T23:00:33.659Z,40.10
2022-11-29T23:03:01.833Z,35.92
2022-11-29T23:05:32.075Z,38.65
2022-11-29T23:07:59.116Z,39.90
2022-11-29T23:10:25.480Z,38.35
2022-11-29T23:12:51.931Z,40.47
2022-11-29T23:15:18.587Z,38.78
2022-11-29T23:17:45.049Z,38.88
2022-11-29T23:20:11.901Z,40.72
2022-11-29T23:22:38.377Z,39.13
2022-11-29T23:25:06.443Z,36.63
2022-11-29T23:27:33.251Z,34.25
2022-11-29T23:29:59.644Z,35.85
2022-11-29T23:32:26.287Z,32.92
2022-11-29T23:34:52.932Z,29.58
2022-11-29T23:37:19.280Z,30.90
2022-11-29T23:39:45.640Z,31.77
2022-11-29T23:42:11.992Z,31.92
2022-11-29T23:44:38.369Z,29.73
2022-11-29T23:47:04.985Z,30.10
2022-11-29T23:49:31.529Z,35.75
2022-11-29T23:51:58.149Z,39.28
2022-11-29T23:54:24.489Z,40.13
2022-11-29T23:56:51.113Z,39.00
2022-11-29T23:59:17.778Z,38.53
